Latest Weather Observations for Adelaide Airport

IDS60901

Issued at 2:41 pm CST Tuesday 27 September 2016 (issued every 10 minutes, with the page automatically refreshed every 10 minutes)

About weather observations | Map of Adelaide area stations | Latest observations for Adelaide area | Other Formats
Station Details ID: 023034 Name: ADELAIDE AIRPORT Lat: -34.95 Lon: 138.52 Height: 2.0 m
Data from the previous 72 hours. | See also: Recent months at Adelaide Airport
Date/Time
CST
Temp
°C
App
Temp
°C
Dew
Point
°C
Rel
Hum
%
Delta-T
°C
Wind Press
QNH
hPa
Press
MSL
hPa
Rain since
9am
mm
Dir  Spd
km/h
Gust
km/h
Spd
kts
Gust
kts
27/02:30pm 15.6 11.6 6.8 56 4.3 WNW 17 28 9 15 1014.8 1014.8 0.0
27/02:00pm 15.7 11.4 7.2 57 4.2 NW 19 28 10 15 1015.1 1015.1 0.0
27/01:30pm 14.7 10.7 6.7 58 3.9 NW 17 24 9 13 1015.2 1015.2 0.0
27/01:00pm 15.1 10.6 6.9 58 4.0 NW 20 30 11 16 1015.4 1015.4 0.0
27/12:30pm 15.6 11.5 8.0 60 3.8 NW 19 28 10 15 1015.6 1015.6 0.0
27/12:00pm 15.2 10.9 7.8 61 3.7 NW 20 32 11 17 1015.9 1015.9 0.0
27/11:30am 15.0 10.2 7.5 61 3.7 WNW 22 30 12 16 1016.1 1016.1 0.0
27/11:00am 14.7 10.2 6.9 59 3.8 NW 20 32 11 17 1016.3 1016.3 0.0
27/10:30am 14.7 10.1 6.7 58 3.9 WNW 20 28 11 15 1016.4 1016.4 0.0
27/10:00am 14.6 9.8 7.3 61 3.6 WNW 22 33 12 18 1016.6 1016.6 0.0
27/09:30am 14.6 9.7 7.0 60 3.7 WNW 22 30 12 16 1016.8 1016.8 0.0
27/09:00am 14.4 9.9 6.8 60 3.7 WNW 20 28 11 15 1016.6 1016.6 0.0
27/08:30am 13.9 9.2 5.9 58 3.8 WNW 20 30 11 16 1016.5 1016.5 0.0
27/08:00am 13.6 8.8 5.8 59 3.7 WNW 20 28 11 15 1016.3 1016.3 0.0
27/07:30am 13.1 8.2 4.9 57 3.8 WNW 20 28 11 15 1015.9 1015.9 0.0
27/07:00am 12.5 7.9 5.4 62 3.3 W 19 24 10 13 1015.6 1015.6 0.0
27/06:30am 11.9 7.6 5.4 64 3.0 W 17 20 9 11 1015.2 1015.2 0.0
27/06:00am 11.7 7.2 6.2 69 2.6 W 19 26 10 14 1015.1 1015.1 0.0
27/05:30am 11.9 7.2 5.9 66 2.8 W 20 30 11 16 1014.9 1014.9 0.0
27/05:00am 12.0 7.6 4.8 61 3.3 W 17 20 9 11 1014.4 1014.4 0.0
27/04:30am 11.7 6.9 4.7 62 3.2 W 19 24 10 13 1014.3 1014.3 0.0
27/04:00am 11.6 7.3 5.3 65 2.9 WSW 17 24 9 13 1014.0 1014.0 0.0
27/03:30am 11.7 6.9 4.7 62 3.2 WSW 19 24 10 13 1013.9 1013.9 0.0
27/03:00am 11.6 6.6 6.3 70 2.5 WSW 22 30 12 16 1014.1 1014.1 0.0
27/02:30am 11.8 7.0 5.5 65 2.9 WSW 20 30 11 16 1014.1 1014.1 0.0
27/02:00am 11.8 7.0 4.8 62 3.2 SW 19 28 10 15 1014.3 1014.3 0.0
27/01:30am 11.5 5.0 6.4 71 2.4 W 30 41 16 22 1014.6 1014.6 0.0
27/01:00am 12.2 7.6 6.5 68 2.7 SW 20 30 11 16 1014.6 1014.6 0.0
27/12:30am 11.5 8.5 7.6 77 1.9 SSW 13 19 7 10 1014.9 1014.9 0.0
27/12:00am 11.6 4.9 7.5 76 2.0 WSW 32 43 17 23 1015.1 1015.1 0.0
 
Date/Time
CST
Temp
°C
App
Temp
°C
Dew
Point
°C
Rel
Hum
%
Delta-T
°C
Wind Press
QNH
hPa
Press
MSL
hPa
Rain since
9am
mm
Dir  Spd
km/h
Gust
km/h
Spd
kts
Gust
kts
26/11:30pm 12.2 6.6 7.0 70 2.5 WSW 26 33 14 18 1015.1 1015.1 0.0
26/11:00pm 12.4 6.4 7.0 69 2.6 W 28 35 15 19 1015.2 1015.2 0.0
26/10:30pm 12.4 7.0 6.5 67 2.8 W 24 35 13 19 1015.1 1015.1 0.0
26/10:00pm 12.3 5.9 6.9 69 2.6 W 30 39 16 21 1015.1 1015.1 0.0
26/09:30pm 12.4 6.8 7.0 69 2.6 W 26 35 14 19 1015.0 1015.0 0.0
26/09:00pm 12.3 6.6 6.9 69 2.6 W 26 33 14 18 1014.8 1014.8 0.0
26/08:30pm 12.4 6.8 7.0 69 2.6 W 26 33 14 18 1014.7 1014.7 0.0
26/08:00pm 12.2 6.0 6.3 67 2.8 W 28 35 15 19 1014.5 1014.5 0.0
26/07:30pm 12.5 6.0 6.6 67 2.8 W 30 37 16 20 1014.1 1014.1 0.0
26/07:00pm 12.5 5.6 6.6 67 2.8 WSW 32 48 17 26 1013.9 1013.9 0.0
26/06:30pm 12.8 6.0 7.0 68 2.8 WSW 32 39 17 21 1013.6 1013.6 0.0
26/06:00pm 13.1 6.0 5.4 59 3.6 WSW 32 44 17 24 1013.4 1013.4 0.0
26/05:30pm 13.4 6.2 6.0 61 3.5 WSW 33 44 18 24 1013.0 1013.0 0.0
26/05:00pm 14.3 7.3 6.7 60 3.7 WSW 33 41 18 22 1012.7 1012.7 0.0
26/04:30pm 15.2 7.9 5.3 51 4.7 W 33 41 18 22 1012.1 1012.1 0.0
26/04:00pm 15.5 8.7 4.9 49 5.0 WNW 30 37 16 20 1011.9 1011.9 0.0
26/03:30pm 15.6 8.3 4.5 47 5.2 WNW 32 41 17 22 1011.9 1011.9 0.0
26/03:00pm 15.7 7.5 2.6 41 5.9 W 35 48 19 26 1012.0 1012.0 0.0
26/02:30pm 15.3 10.1 7.4 59 3.9 WSW 24 32 13 17 1012.0 1012.0 0.0
26/02:00pm 15.8 9.5 7.3 57 4.2 WSW 30 37 16 20 1012.0 1012.0 0.0
26/01:30pm 16.3 11.4 7.0 54 4.6 W 22 32 12 17 1011.8 1011.8 0.0
26/01:00pm 15.5 10.3 7.4 58 4.0 W 24 32 13 17 1012.0 1012.0 0.0
26/12:30pm 15.1 9.6 7.7 61 3.7 W 26 32 14 17 1012.1 1012.1 0.0
26/12:00pm 14.7 10.1 9.5 71 2.7 WSW 24 33 13 18 1012.2 1012.2 0.0
26/11:30am 14.5 9.5 9.4 71 2.6 W 26 35 14 19 1012.0 1012.0 0.0
26/11:00am 15.9 10.6 8.6 62 3.7 NW 26 35 14 19 1012.2 1012.2 0.0
26/10:30am 14.5 8.7 8.1 65 3.2 NNW 28 41 15 22 1012.4 1012.4 0.0
26/10:00am 13.9 7.4 6.4 60 3.6 NNW 30 39 16 21 1012.5 1012.5 0.0
26/09:30am 13.6 9.2 4.7 55 4.1 NNW 17 24 9 13 1012.4 1012.4 0.0
26/09:00am 13.4 8.7 3.4 50 4.5 N 17 22 9 12 1012.4 1012.4 0.2
26/08:30am 12.7 7.6 3.2 52 4.2 NNE 19 24 10 13 1012.1 1012.1 0.2
26/08:00am 12.0 6.9 4.2 59 3.5 NNE 20 28 11 15 1012.1 1012.1 0.2
26/07:30am 11.3 6.4 3.9 60 3.3 NNE 19 26 10 14 1012.3 1012.3 0.2
26/07:00am 10.8 5.8 3.8 62 3.1 NNE 19 28 10 15 1012.3 1012.3 0.2
26/06:30am 9.5 5.3 4.0 68 2.4 NE 15 19 8 10 1012.4 1012.4 0.2
26/06:00am 9.0 4.8 3.7 69 2.3 NE 15 17 8 9 1012.2 1012.2 0.2
26/05:30am 9.0 4.4 3.7 69 2.3 NE 17 20 9 11 1012.1 1012.1 0.2
26/05:00am 9.2 4.9 3.4 67 2.5 NE 15 17 8 9 1012.0 1012.0 0.2
26/04:30am 8.1 3.5 3.7 74 1.9 NE 17 17 9 9 1011.9 1011.9 0.2
26/04:00am 8.5 5.1 4.2 74 1.9 NNE 11 13 6 7 1012.1 1012.1 0.2
26/03:30am 8.9 4.8 4.6 74 1.9 NE 15 17 8 9 1011.9 1011.9 0.2
26/03:00am 8.3 5.5 5.2 81 1.4 ENE 9 13 5 7 1012.2 1012.2 0.2
26/02:30am 9.5 5.5 4.8 72 2.1 NE 15 19 8 10 1013.2 1013.2 0.2
26/02:00am 9.7 5.8 5.5 75 1.9 NNE 15 17 8 9 1013.7 1013.7 0.2
26/01:30am 10.3 6.9 6.0 75 2.0 NNE 13 17 7 9 1014.2 1014.2 0.2
26/01:00am 10.7 7.7 6.2 74 2.1 NE 11 13 6 7 1014.5 1014.5 0.2
26/12:30am 10.8 7.5 6.5 75 2.0 NNE 13 15 7 8 1014.7 1014.7 0.2
26/12:00am 10.9 7.8 7.3 78 1.7 NNE 13 17 7 9 1014.8 1014.8 0.2
 
Date/Time
CST
Temp
°C
App
Temp
°C
Dew
Point
°C
Rel
Hum
%
Delta-T
°C
Wind Press
QNH
hPa
Press
MSL
hPa
Rain since
9am
mm
Dir  Spd
km/h
Gust
km/h
Spd
kts
Gust
kts
25/11:30pm 11.3 8.2 7.1 75 2.0 NE 13 17 7 9 1014.9 1014.9 0.2
25/11:00pm 12.1 11.4 6.9 70 2.5 CALM 0 0 0 0 1015.2 1015.2 0.2
25/10:30pm 12.5 11.2 6.1 65 3.0 W 2 7 1 4 1015.4 1015.4 0.2
25/10:00pm 12.2 10.1 6.7 69 2.6 NW 7 9 4 5 1015.6 1015.6 0.2
25/09:30pm 12.2 9.8 7.2 71 2.4 NNW 9 11 5 6 1015.5 1015.5 0.2
25/09:00pm 12.6 10.5 6.7 67 2.8 NW 7 9 4 5 1015.4 1015.4 0.2
25/08:30pm 12.6 10.4 6.0 64 3.1 NW 7 9 4 5 1015.2 1015.2 0.2
25/08:00pm 12.7 10.1 5.9 63 3.2 NW 9 13 5 7 1015.1 1015.1 0.2
25/07:30pm 13.0 9.6 7.5 69 2.7 WNW 15 17 8 9 1014.9 1014.9 0.2
25/07:00pm 12.7 9.6 7.1 69 2.7 NW 13 17 7 9 1014.5 1014.5 0.2
25/06:30pm 12.9 8.8 6.4 64 3.1 NW 17 19 9 10 1014.3 1014.3 0.2
25/06:00pm 13.2 9.9 6.5 64 3.2 NNW 13 17 7 9 1013.9 1013.9 0.2
25/05:30pm 14.2 10.0 5.5 56 4.1 WNW 17 20 9 11 1013.9 1013.9 0.2
25/05:00pm 14.4 8.5 5.8 56 4.1 NNW 26 32 14 17 1013.8 1013.8 0.2
25/04:30pm 14.0 9.2 5.5 56 4.0 NW 20 28 11 15 1013.8 1013.8 0.2
25/04:00pm 14.4 9.4 4.4 51 4.6 NW 20 30 11 16 1013.7 1013.7 0.2
25/03:30pm 14.8 10.6 3.9 48 5.0 NW 15 20 8 11 1013.8 1013.8 0.2
25/03:00pm 14.5 10.4 4.3 50 4.7 NW 15 22 8 12 1013.9 1013.9 0.2
25/02:30pm 14.0 9.3 5.3 55 4.1 WNW 19 26 10 14 1014.2 1014.2 0.2
25/02:00pm 14.1 8.5 3.5 49 4.8 WNW 22 28 12 15 1014.6 1014.6 0.2
25/01:30pm 14.5 10.4 6.2 57 4.0 WNW 17 24 9 13 1014.7 1014.7 0.2
25/01:00pm 15.1 10.7 6.7 57 4.1 WNW 19 26 10 14 1014.8 1014.8 0.2
25/12:30pm 14.2 10.5 4.4 51 4.5 WNW 13 26 7 14 1015.2 1015.2 0.2
25/12:00pm 14.4 10.7 4.7 52 4.5 W 13 20 7 11 1015.3 1015.3 0.2
25/11:30am 14.1 10.5 5.1 54 4.2 W 13 20 7 11 1015.8 1015.8 0.2
25/11:00am 13.5 10.4 5.6 59 3.7 SW 11 17 6 9 1015.9 1015.9 0.2
25/10:30am 13.0 9.7 7.9 71 2.5 SW 15 22 8 12 1016.0 1016.0 0.2
25/10:00am 13.5 10.4 5.6 59 3.7 SW 11 19 6 10 1016.3 1016.3 0.2
25/09:30am 13.1 10.2 6.4 64 3.2 WSW 11 17 6 9 1016.2 1016.2 0.0
25/09:00am 12.0 9.5 6.5 69 2.6 S 9 13 5 7 1016.4 1016.4 1.4
25/08:30am 10.8 5.0 7.9 82 1.4 SW 28 35 15 19 1016.4 1016.4 1.4
25/08:00am 11.1 6.7 6.6 74 2.1 W 19 30 10 16 1016.2 1016.2 1.4
25/07:30am 10.9 10.1 8.2 83 1.3 SW 2 7 1 4 1015.7 1015.7 1.4
25/07:00am 10.5 6.4 8.0 84 1.2 SW 19 28 10 15 1015.3 1015.3 1.4
25/06:30am 11.9 8.3 5.2 63 3.1 WSW 13 17 7 9 1014.7 1014.7 0.8
25/06:00am 11.6 6.7 4.3 61 3.3 WSW 19 24 10 13 1014.4 1014.4 0.8
25/05:30am 11.7 7.2 4.4 61 3.3 SW 17 20 9 11 1014.0 1014.0 0.8
25/05:00am 11.3 6.9 4.7 64 3.0 SW 17 24 9 13 1013.5 1013.5 0.8
25/04:30am 11.3 6.4 3.9 60 3.3 SW 19 26 10 14 1013.4 1013.4 0.8
25/04:00am 11.7 6.9 5.4 65 2.9 WSW 20 28 11 15 1013.3 1013.3 0.8
25/03:30am 11.6 6.8 4.8 63 3.1 SW 19 24 10 13 1013.2 1013.2 0.8
25/03:00am 11.4 6.5 4.0 60 3.3 SW 19 24 10 13 1012.7 1012.7 0.8
25/02:30am 11.3 6.7 3.6 59 3.4 SW 17 24 9 13 1012.5 1012.5 0.8
25/02:00am 11.6 6.6 4.8 63 3.1 SW 20 28 11 15 1012.8 1012.8 0.8
25/01:30am 11.9 7.0 4.1 59 3.5 SW 19 26 10 14 1013.1 1013.1 0.8
25/01:00am 11.9 6.7 3.8 57 3.6 SW 20 32 11 17 1013.0 1013.0 0.8
25/12:30am 12.0 5.9 2.6 52 4.1 SW 24 35 13 19 1013.0 1013.0 0.8
25/12:00am 12.1 6.6 1.8 49 4.4 SW 20 30 11 16 1013.0 1013.0 0.8
 
Date/Time
CST
Temp
°C
App
Temp
°C
Dew
Point
°C
Rel
Hum
%
Delta-T
°C
Wind Press
QNH
hPa
Press
MSL
hPa
Rain since
9am
mm
Dir  Spd
km/h
Gust
km/h
Spd
kts
Gust
kts
24/11:30pm 11.8 5.8 3.4 56 3.7 SW 24 33 13 18 1012.9 1012.9 0.8
24/11:00pm 12.0 6.0 3.1 54 3.9 SW 24 33 13 18 1012.9 1012.9 0.8
24/10:30pm 12.4 7.1 4.8 60 3.5 SSW 22 32 12 17 1012.8 1012.8 0.8
24/10:00pm 12.4 7.3 6.0 65 3.0 SSW 22 33 12 18 1012.6 1012.6 0.8
24/09:30pm 12.4 7.9 6.0 65 3.0 SSW 19 26 10 14 1012.5 1012.5 0.8
24/09:00pm 12.4 6.9 5.8 64 3.1 SSW 24 32 13 17 1012.3 1012.3 0.8
24/08:30pm 12.8 6.8 5.5 61 3.4 SSW 26 37 14 20 1012.0 1012.0 0.8
24/08:00pm 12.9 7.1 4.4 56 3.9 SSW 24 35 13 19 1011.4 1011.4 0.6
24/07:30pm 13.3 7.6 6.9 65 3.1 SSW 26 33 14 18 1011.0 1011.0 0.6
24/07:00pm 13.3 8.4 7.1 66 3.0 SSW 22 32 12 17 1010.3 1010.3 0.6
24/06:30pm 12.6 7.7 10.1 85 1.3 WSW 26 39 14 21 1009.8 1009.8 0.6
24/06:00pm 13.2 7.6 8.8 74 2.2 SW 28 35 15 19 1009.2 1009.2 0.6
24/05:30pm 13.7 9.4 9.2 74 2.3 SW 22 35 12 19 1008.7 1008.7 0.6
24/05:00pm 14.3 9.6 9.2 71 2.6 SW 24 33 13 18 1008.2 1008.2 0.6
24/04:30pm 14.9 9.7 10.3 74 2.4 SW 28 33 15 18 1007.7 1007.7 0.6
24/04:00pm 15.1 9.4 9.7 70 2.8 SW 30 39 16 21 1007.2 1007.2 0.6
24/03:30pm 14.7 8.6 9.7 72 2.6 SW 32 39 17 21 1006.7 1006.7 0.6
24/03:00pm 14.9 10.0 9.9 72 2.6 SW 26 32 14 17 1006.6 1006.6 0.6

Latest Capital City Observations: Canberra | Sydney | Melbourne | Brisbane | Adelaide | Perth | Hobart | Darwin

Other Formats:

Comma delimited format used in spreadsheet applications
http://www.bom.gov.au/fwo/IDS60901/IDS60901.94672.axf

JavaScript Object Notation format (JSON) in row-major order
http://www.bom.gov.au/fwo/IDS60901/IDS60901.94672.json